Time;durP1;ratioP1;P1;durP2;ratioP2;P2;SDS_P1;SDS_P2;PMS_P1;PMS_P2;Temp;Humidity;BMP_temperature;BMP_pressure;BME280_temperature;BME280_humidity;BME280_pressure;Samples;Min_cycle;Max_cycle;Signal;HPM_P1;HPM_P2
2022/01/01 00:01:41;;;;;;;;;;;11.60;99.90;;;11.84;100.00;101590.44;4936798;28;19927;-81
2022/01/01 00:04:09;;;;;;;;;;;12.70;99.90;;;11.81;100.00;101583.44;4950654;28;19941;-79
2022/01/01 00:06:36;;;;;;;;;;;11.60;99.90;;;11.77;100.00;101590.50;4936545;29;20555;-80
2022/01/01 00:09:03;;;;;;;;;;;11.60;99.90;;;11.81;100.00;101590.47;4937294;28;19934;-80
2022/01/01 00:11:30;;;;;;;;;;;11.80;99.90;;;11.83;100.00;101596.59;4954247;29;19927;-80
2022/01/01 00:13:57;;;;;;;;;;;11.60;99.90;;;11.73;100.00;101594.06;4952113;28;19931;-80
2022/01/01 00:16:29;;;;;;;;;;;11.60;99.90;;;11.80;100.00;101588.72;4938662;29;20017;-80
2022/01/01 00:18:57;;;;;;;;;;;11.60;99.90;;;11.81;100.00;101590.47;4953271;29;19926;-79
2022/01/01 00:21:24;;;;;;;;;;;11.50;99.90;;;11.81;100.00;101596.63;4935571;28;20276;-79
2022/01/01 00:23:51;;;;;;;;;;;11.90;99.90;;;11.80;100.00;101601.91;4934830;29;19934;-79
2022/01/01 00:26:18;;;;;;;;;;;11.60;99.90;;;11.81;100.00;101599.28;4935544;29;20708;-79
2022/01/01 00:28:45;;;;;;;;;;;11.60;99.90;;;11.81;100.00;101608.94;4935235;29;19972;-80
2022/01/01 00:31:12;;;;;;;;;;;11.60;99.90;;;11.83;100.00;101602.75;4920011;29;19936;-79
2022/01/01 00:33:40;;;;;;;;;;;12.30;99.90;;;11.82;100.00;101598.38;4933780;29;19931;-80
2022/01/01 00:36:07;;;;;;;;;;;11.50;99.90;;;11.85;100.00;101600.09;4936190;29;19934;-80
2022/01/01 00:38:34;;;;;;;;;;;11.50;99.90;;;11.81;100.00;101608.94;4934878;29;19931;-80
2022/01/01 00:41:01;;;;;;;;;;;11.60;99.90;;;11.80;100.00;101601.91;4934014;29;19927;-79
2022/01/01 00:43:27;;;;;;;;;;;11.60;99.90;;;11.81;100.00;101595.75;4950134;29;19933;-80
2022/01/01 00:45:54;;;;;;;;;;;11.60;99.90;;;11.81;100.00;101599.28;4919423;29;19972;-79
2022/01/01 00:48:21;;;;;;;;;;;11.60;99.90;;;11.74;100.00;101597.56;4935384;29;19926;-79
2022/01/01 00:50:48;;;;;;;;;;;11.60;99.90;;;11.77;100.00;101598.41;4935137;29;20686;-79
2022/01/01 00:53:15;;;;;;;;;;;11.50;99.90;;;11.77;100.00;101597.53;4948887;28;19954;-79
2022/01/01 00:55:42;;;;;;;;;;;11.60;99.90;;;11.78;100.00;101604.56;4950034;29;19969;-80
2022/01/01 00:58:09;;;;;;;;;;;11.50;99.90;;;11.75;100.00;101605.47;4918293;29;19931;-80
2022/01/01 01:00:36;;;;;;;;;;;11.50;99.90;;;11.83;100.00;101604.50;4950152;29;19994;-79
2022/01/01 01:03:11;;;;;;;;;;;11.50;99.90;;;11.82;100.00;101598.38;4933450;29;20036;-80
2022/01/01 01:05:39;;;;;;;;;;;11.50;99.90;;;11.78;100.00;101600.16;4933648;29;20016;-79
2022/01/01 01:08:07;;;;;;;;;;;11.50;99.90;;;11.87;100.00;101609.75;4950521;29;19984;-79
2022/01/01 01:10:36;;;;;;;;;;;11.60;99.90;;;11.84;100.00;101601.00;4934267;29;19939;-79
2022/01/01 01:13:03;;;;;;;;;;;11.60;99.90;;;11.83;100.00;101607.16;4948833;28;20025;-80
2022/01/01 01:15:32;;;;;;;;;;;11.50;99.90;;;11.80;100.00;101594.88;4918781;29;19969;-80
2022/01/01 01:18:04;;;;;;;;;;;11.90;99.90;;;11.82;100.00;101603.66;4950250;29;19977;-80
2022/01/01 01:20:31;;;;;;;;;;;11.50;99.90;;;11.79;100.00;101606.31;4950104;29;19937;-79
2022/01/01 01:22:59;;;;;;;;;;;11.50;99.90;;;11.77;100.00;101600.16;4933607;29;20033;-80
2022/01/01 01:25:31;;;;;;;;;;;11.50;99.90;;;11.73;100.00;101607.25;4949329;29;19927;-80
2022/01/01 01:28:06;;;;;;;;;;;12.20;99.90;;;11.75;100.00;101602.84;4935161;29;20721;-80
2022/01/01 01:30:35;;;;;;;;;;;11.50;99.90;;;11.76;100.00;101603.69;4935017;29;20010;-80
2022/01/01 01:33:02;;;;;;;;;;;11.50;99.90;;;11.73;100.00;101612.53;4949393;29;19927;-80
2022/01/01 01:35:29;;;;;;;;;;;11.50;99.90;;;11.69;100.00;101605.50;4962006;28;19934;-81
2022/01/01 01:37:56;;;;;;;;;;;11.50;99.90;;;11.67;100.00;101602.03;4951600;29;19914;-81
2022/01/01 01:40:24;;;;;;;;;;;11.50;99.90;;;11.72;100.00;101604.63;4966700;28;19930;-81
2022/01/01 01:42:51;;;;;;;;;;;11.50;99.90;;;11.70;100.00;101609.03;4947276;29;20022;-80
2022/01/01 01:45:21;;;;;;;;;;;11.50;99.90;;;11.67;100.00;101609.06;4939554;29;19930;-80
2022/01/01 01:47:50;;;;;;;;;;;10.00;99.90;;;11.66;100.00;101600.28;4955862;29;20125;-80
2022/01/01 01:50:18;;;;;;;;;;;11.40;99.90;;;11.59;100.00;101602.09;4939982;29;19937;-80
2022/01/01 01:52:50;;;;;;;;;;;11.50;99.90;;;11.64;100.00;101609.97;4922571;29;20400;-80
2022/01/01 01:55:18;;;;;;;;;;;11.50;99.90;;;11.63;100.00;101619.66;4935957;28;20453;-81
2022/01/01 01:57:45;;;;;;;;;;;11.40;99.90;;;11.67;100.00;101617.84;4953764;29;20041;-80
2022/01/01 02:01:00;;;;;;;;;;;11.70;99.90;;;11.69;100.00;101621.34;4951676;29;19930;-80
2022/01/01 02:03:09;;;;;;;;;;;11.40;99.90;;;11.65;100.00;101609.06;4964594;28;19934;-80
2022/01/01 02:05:37;;;;;;;;;;;11.40;99.90;;;11.59;100.00;101607.34;4938291;29;19926;-80
2022/01/01 02:08:09;;;;;;;;;;;11.40;99.90;;;11.62;100.00;101609.97;4970326;28;19931;-80
2022/01/01 02:10:37;;;;;;;;;;;11.40;99.90;;;11.62;100.00;101609.97;4954070;29;19927;-80
2022/01/01 02:13:11;;;;;;;;;;;11.40;99.90;;;11.62;100.00;101611.75;4968895;28;19930;-80
2022/01/01 02:18:20;;;;;;;;;;;11.40;99.90;;;11.62;100.00;101614.38;4953776;28;19954;-80
2022/01/01 02:20:50;;;;;;;;;;;12.10;99.90;;;11.66;100.00;101610.81;4937917;29;19946;-80
2022/01/01 02:23:23;;;;;;;;;;;11.40;99.90;;;11.63;100.00;101598.56;4952612;28;19931;-80
2022/01/01 02:25:50;;;;;;;;;;;11.60;99.90;;;11.60;100.00;101592.44;4953911;29;20742;-79
2022/01/01 02:28:17;;;;;;;;;;;11.30;99.90;;;11.59;100.00;101594.19;4953235;28;19934;-79
2022/01/01 02:30:44;;;;;;;;;;;11.40;99.90;;;11.60;100.00;101597.69;4937050;28;20301;-80
2022/01/01 02:33:11;;;;;;;;;;;11.40;99.90;;;11.62;100.00;101603.81;4951814;29;19994;-81
2022/01/01 02:35:38;;;;;;;;;;;11.70;99.90;;;11.62;100.00;101601.19;4955017;28;19936;-80
2022/01/01 02:38:07;;;;;;;;;;;11.40;99.90;;;11.62;100.00;101602.06;4955206;28;19930;-80
2022/01/01 02:40:34;;;;;;;;;;;11.40;99.90;;;11.59;100.00;101598.59;4954728;28;19930;-79
2022/01/01 02:43:01;;;;;;;;;;;11.30;99.90;;;11.53;100.00;101586.34;4937841;28;19932;-79
2022/01/01 02:45:30;;;;;;;;;;;11.40;99.90;;;11.60;100.00;101584.53;4954465;28;20470;-80
2022/01/01 02:47:57;;;;;;;;;;;11.40;99.90;;;11.57;100.00;101588.03;4939583;28;19926;-80
2022/01/01 02:50:24;;;;;;;;;;;11.40;99.90;;;11.58;100.00;101586.31;4938825;28;19930;-79
2022/01/01 02:52:52;;;;;;;;;;;11.40;99.90;;;11.61;100.00;101592.41;4953725;28;19926;-79
2022/01/01 02:55:19;;;;;;;;;;;11.40;99.90;;;11.52;100.00;101587.22;4937605;28;19947;-81
2022/01/01 02:57:46;;;;;;;;;;;11.40;99.90;;;11.61;100.00;101591.53;4970485;28;20395;-80
2022/01/01 03:00:13;;;;;;;;;;;11.30;99.90;;;11.59;100.00;101582.78;4953624;28;19926;-80
2022/01/01 03:02:40;;;;;;;;;;;11.30;99.90;;;11.57;100.00;101577.50;4953310;28;20476;-79
2022/01/01 03:05:08;;;;;;;;;;;11.30;99.90;;;11.58;100.00;101586.31;4955689;28;20412;-80
2022/01/01 03:07:36;;;;;;;;;;;11.40;99.90;;;11.58;100.00;101571.34;4957997;28;19926;-80
2022/01/01 03:10:03;;;;;;;;;;;11.40;99.90;;;11.58;100.00;101568.72;4957983;28;19934;-79
2022/01/01 03:12:30;;;;;;;;;;;11.30;99.90;;;11.52;100.00;101563.50;4956425;28;19940;-80
2022/01/01 03:14:57;;;;;;;;;;;11.40;99.90;;;11.57;100.00;101572.22;4942100;28;19989;-80
2022/01/01 03:17:24;;;;;;;;;;;13.10;99.90;;;11.57;100.00;101563.47;4958145;28;19937;-79
2022/01/01 03:19:51;;;;;;;;;;;11.30;99.90;;;11.52;100.00;101562.63;4974016;28;19930;-80
2022/01/01 03:22:18;;;;;;;;;;;11.30;99.90;;;11.50;100.00;101554.75;4958633;28;19926;-80
2022/01/01 03:25:03;;;;;;;;;;;11.30;99.90;;;11.48;100.00;101556.53;4960120;28;20029;-80
2022/01/01 03:27:30;;;;;;;;;;;11.30;99.90;;;11.48;100.00;101556.53;4958356;28;19941;-79
2022/01/01 03:29:59;;;;;;;;;;;11.30;99.90;;;11.38;100.00;101544.28;4956873;28;19937;-80
2022/01/01 03:32:29;;;;;;;;;;;12.60;99.90;;;11.47;100.00;101562.66;4957013;28;20261;-80
2022/01/01 03:34:56;;;;;;;;;;;11.20;99.90;;;11.39;100.00;101541.63;4956629;28;20280;-81
2022/01/01 03:37:23;;;;;;;;;;;11.90;99.90;;;11.32;100.00;101547.84;4957191;28;20437;-80
2022/01/01 03:39:50;;;;;;;;;;;11.10;99.90;;;11.31;100.00;101554.88;4957556;28;19970;-80
2022/01/01 03:42:17;;;;;;;;;;;10.90;99.90;;;11.27;100.00;101553.16;4941588;28;19930;-81
2022/01/01 03:44:44;;;;;;;;;;;11.60;99.90;;;11.24;100.00;101561.09;4973813;28;19935;-80
2022/01/01 03:47:11;;;;;;;;;;;12.20;99.90;;;11.17;100.00;101555.00;4971088;28;20314;-80
2022/01/01 03:49:39;;;;;;;;;;;10.90;99.90;;;11.20;100.00;101559.38;4937074;29;19937;-80
2022/01/01 03:52:11;;;;;;;;;;;11.00;99.90;;;11.18;100.00;101555.88;4952655;29;19931;-80
2022/01/01 03:54:38;;;;;;;;;;;11.00;99.90;;;11.13;100.00;101557.66;4953252;28;20026;-79
2022/01/01 03:57:07;;;;;;;;;;;10.90;99.90;;;11.10;100.00;101549.78;4953211;29;19930;-79
2022/01/01 03:59:34;;;;;;;;;;;10.90;99.90;;;11.07;100.00;101556.81;4952584;28;20330;-79
2022/01/01 04:02:04;;;;;;;;;;;9.90;99.90;;;11.02;100.00;101556.00;4952483;28;19931;-79
2022/01/01 04:04:31;;;;;;;;;;;11.10;99.90;;;10.99;100.00;101552.50;4951835;29;19926;-79
2022/01/01 04:06:59;;;;;;;;;;;10.80;99.90;;;10.95;100.00;101564.78;4952253;28;19937;-79
2022/01/01 04:09:26;;;;;;;;;;;11.00;99.90;;;10.82;100.00;101561.38;4953077;29;19926;-80
2022/01/01 04:11:53;;;;;;;;;;;10.90;99.90;;;10.85;100.00;101565.72;4952756;28;19964;-80
2022/01/01 04:14:20;;;;;;;;;;;11.70;99.90;;;10.72;100.00;101551.78;4966550;28;19941;-81
2022/01/01 04:16:47;;;;;;;;;;;10.60;99.90;;;10.69;100.00;101573.72;4951653;28;19926;-79
2022/01/01 04:19:14;;;;;;;;;;;12.20;99.90;;;10.64;100.00;101565.84;4952412;28;20394;-80
2022/01/01 04:21:41;;;;;;;;;;;8.60;99.90;;;10.57;100.00;101568.53;4952506;29;19927;-79
2022/01/01 04:24:08;;;;;;;;;;;11.40;99.90;;;10.57;100.00;101565.91;4967562;28;19938;-80
2022/01/01 04:26:35;;;;;;;;;;;10.40;99.90;;;10.48;100.00;101572.94;4968733;28;19934;-80
2022/01/01 04:29:02;;;;;;;;;;;10.30;99.90;;;10.48;100.00;101570.31;4952472;29;19926;-80
2022/01/01 04:31:29;;;;;;;;;;;11.70;99.90;;;10.44;100.00;101573.84;4952902;29;19941;-79
2022/01/01 04:33:56;;;;;;;;;;;10.30;99.90;;;10.34;100.00;101572.97;4951133;29;19926;-79
2022/01/01 04:36:24;;;;;;;;;;;12.00;99.90;;;10.36;100.00;101572.94;4967992;28;19938;-80
2022/01/01 04:38:50;;;;;;;;;;;10.30;99.90;;;10.38;100.00;101583.47;4971613;28;19933;-80
2022/01/01 04:41:17;;;;;;;;;;;11.50;99.90;;;10.42;100.00;101577.34;4971807;28;20318;-80
2022/01/01 04:43:46;;;;;;;;;;;10.20;99.90;;;10.29;100.00;101580.00;4954510;28;20322;-81
2022/01/01 04:46:16;;;;;;;;;;;11.00;99.90;;;10.33;100.00;101591.38;4941101;28;19937;-78
2022/01/01 04:48:43;;;;;;;;;;;10.20;99.90;;;10.33;100.00;101587.00;4940358;28;19989;-79
2022/01/01 04:51:11;;;;;;;;;;;11.30;99.90;;;10.35;100.00;101603.66;4956054;28;19961;-80
2022/01/01 04:53:45;;;;;;;;;;;10.20;99.90;;;10.39;100.00;101609.78;4955547;28;20395;-79
2022/01/01 04:56:18;;;;;;;;;;;11.30;99.90;;;10.34;100.00;101601.91;4971753;28;19934;-79
2022/01/01 04:58:45;;;;;;;;;;;10.20;99.90;;;10.37;100.00;101616.78;4956318;28;19930;-80
2022/01/01 05:01:14;;;;;;;;;;;10.30;99.90;;;10.34;100.00;101615.06;4953693;28;19927;-79
2022/01/01 05:03:42;;;;;;;;;;;10.20;99.90;;;10.38;100.00;101615.94;4955363;28;19977;-79
2022/01/01 05:06:09;;;;;;;;;;;11.50;99.90;;;10.35;100.00;101611.56;4955848;28;19930;-80
2022/01/01 05:08:36;;;;;;;;;;;10.30;99.90;;;10.35;100.00;101614.19;4956050;28;19962;-80
2022/01/01 05:11:03;;;;;;;;;;;8.50;99.90;;;10.36;100.00;101610.66;4955990;28;20379;-79
2022/01/01 05:13:30;;;;;;;;;;;10.30;99.90;;;10.26;100.00;101602.81;4954897;28;19934;-79
2022/01/01 05:16:00;;;;;;;;;;;10.90;99.90;;;10.34;100.00;101609.81;4956535;28;19926;-80
2022/01/01 05:18:28;;;;;;;;;;;10.30;99.90;;;10.39;100.00;101619.44;4971343;28;19930;-79
2022/01/01 05:20:55;;;;;;;;;;;10.20;99.90;;;10.35;100.00;101615.94;4956290;28;20458;-80
2022/01/01 05:23:22;;;;;;;;;;;12.10;99.90;;;10.32;100.00;101601.03;4955877;28;20676;-79
2022/01/01 05:25:49;;;;;;;;;;;10.90;99.90;;;10.43;100.00;101613.31;4956156;28;19930;-80
2022/01/01 05:28:15;;;;;;;;;;;11.70;99.90;;;10.42;100.00;101616.81;4956312;28;19949;-80
2022/01/01 05:30:42;;;;;;;;;;;10.40;99.90;;;10.29;100.00;101601.03;4940844;28;19937;-80
2022/01/01 05:33:09;;;;;;;;;;;11.00;99.90;;;10.37;100.00;101608.91;4939419;28;19981;-80
2022/01/01 05:35:39;;;;;;;;;;;10.40;99.90;;;10.40;100.00;101605.41;4938671;28;19926;-79
2022/01/01 05:38:08;;;;;;;;;;;10.80;99.90;;;10.39;100.00;101611.53;4971395;28;20020;-79
2022/01/01 05:40:51;;;;;;;;;;;9.10;99.90;;;10.33;100.00;101608.06;4953946;28;19937;-79
2022/01/01 05:43:21;;;;;;;;;;;10.40;99.90;;;10.38;100.00;101602.78;4950706;28;19998;-79
2022/01/01 05:45:48;;;;;;;;;;;12.10;99.90;;;10.46;100.00;101618.59;4951787;28;19931;-79
2022/01/01 05:48:16;;;;;;;;;;;10.90;99.90;;;10.44;100.00;101618.56;4951722;29;19970;-79
2022/01/01 05:50:46;;;;;;;;;;;11.20;99.90;;;10.47;100.00;101618.56;4967398;28;19927;-80
2022/01/01 05:53:16;;;;;;;;;;;10.40;99.90;;;10.48;100.00;101620.31;4934650;29;19927;-80
2022/01/01 05:55:43;;;;;;;;;;;11.40;99.90;;;10.46;100.00;101610.69;4951762;28;19931;-80
2022/01/01 05:58:12;;;;;;;;;;;10.80;99.90;;;10.48;100.00;101619.44;4951865;28;19931;-80
2022/01/01 06:00:39;;;;;;;;;;;10.50;99.90;;;10.52;100.00;101622.91;4951345;29;19937;-79
2022/01/01 06:03:06;;;;;;;;;;;10.40;99.90;;;10.49;100.00;101608.03;4950825;28;20029;-80
2022/01/01 06:05:34;;;;;;;;;;;11.50;99.90;;;10.46;100.00;101613.31;4967822;28;19981;-80
2022/01/01 06:08:01;;;;;;;;;;;12.70;99.90;;;10.52;100.00;101607.13;4951128;29;19931;-79
2022/01/01 06:10:28;;;;;;;;;;;10.40;99.90;;;10.49;100.00;101610.66;4951982;28;19931;-80
2022/01/01 06:12:56;;;;;;;;;;;10.50;99.90;;;10.52;100.00;101609.75;4966745;28;20283;-80
2022/01/01 06:15:23;;;;;;;;;;;10.40;99.90;;;10.50;100.00;101613.28;4966195;28;19931;-81
2022/01/01 06:17:50;;;;;;;;;;;10.40;99.90;;;10.53;100.00;101616.78;4935076;29;20290;-80
2022/01/01 06:20:17;;;;;;;;;;;10.50;99.90;;;10.50;100.00;101613.28;4935750;29;19933;-80
2022/01/01 06:23:03;;;;;;;;;;;10.50;99.90;;;10.53;100.00;101615.03;4949907;28;20414;-80
2022/01/01 06:25:30;;;;;;;;;;;12.30;99.90;;;10.51;100.00;101614.16;4966633;28;20786;-81
2022/01/01 06:27:57;;;;;;;;;;;10.40;99.90;;;10.50;100.00;101604.53;4935110;28;19926;-81
2022/01/01 06:30:24;;;;;;;;;;;11.70;99.90;;;10.52;100.00;101604.50;4935008;28;19931;-79
2022/01/01 06:32:52;;;;;;;;;;;10.50;99.90;;;10.50;100.00;101610.66;4934661;29;19927;-80
2022/01/01 06:35:19;;;;;;;;;;;10.50;99.90;;;10.55;100.00;101607.16;4932340;28;20401;-79
2022/01/01 06:37:45;;;;;;;;;;;10.60;99.90;;;10.52;100.00;101609.75;4970059;28;19970;-81
2022/01/01 06:40:12;;;;;;;;;;;12.20;99.90;;;10.49;100.00;101616.78;4938520;28;19926;-80
2022/01/01 06:42:39;;;;;;;;;;;10.50;99.90;;;10.50;100.00;101609.78;4937763;28;19936;-80
2022/01/01 06:45:06;;;;;;;;;;;11.20;99.90;;;10.52;100.00;101613.28;4954049;28;19937;-81
2022/01/01 06:47:33;;;;;;;;;;;10.50;99.90;;;10.46;100.00;101603.66;4970840;28;19937;-81
2022/01/01 06:50:00;;;;;;;;;;;11.70;99.90;;;10.41;100.00;101594.91;4954256;28;20012;-80
2022/01/01 06:52:27;;;;;;;;;;;10.40;99.90;;;10.34;100.00;101579.97;4954123;28;19927;-80
2022/01/01 06:54:54;;;;;;;;;;;11.20;99.90;;;10.31;100.00;101577.38;4970496;28;19930;-80
2022/01/01 06:57:21;;;;;;;;;;;10.10;99.90;;;10.35;100.00;101589.63;4970900;28;19930;-80
2022/01/01 06:59:50;;;;;;;;;;;12.30;99.90;;;10.28;100.00;101588.75;4971520;28;19926;-81
2022/01/01 07:02:19;;;;;;;;;;;10.40;99.90;;;10.16;100.00;101568.63;4970382;28;19964;-80
2022/01/01 07:04:46;;;;;;;;;;;10.90;99.90;;;10.26;100.00;101600.19;4954754;28;19930;-81
2022/01/01 07:07:15;;;;;;;;;;;10.40;99.90;;;10.18;100.00;101598.44;4939406;28;19930;-80
2022/01/01 07:09:42;;;;;;;;;;;10.30;99.90;;;10.18;100.00;101605.47;4971398;28;19977;-81
2022/01/01 07:12:09;;;;;;;;;;;10.20;99.90;;;10.13;100.00;101608.09;4955418;28;19937;-80
2022/01/01 07:14:35;;;;;;;;;;;10.20;99.90;;;10.07;100.00;101605.50;4969816;28;20318;-80
2022/01/01 07:17:03;;;;;;;;;;;10.10;99.90;;;10.05;100.00;101601.97;4955192;28;19940;-80
2022/01/01 07:19:30;;;;;;;;;;;10.10;99.90;;;10.08;100.00;101628.28;4953694;28;19930;-81
2022/01/01 07:22:00;;;;;;;;;;;10.30;99.90;;;10.11;100.00;101622.13;4953964;28;20339;-80
2022/01/01 07:24:27;;;;;;;;;;;10.20;99.90;;;10.08;100.00;101626.50;4953377;28;19989;-81
2022/01/01 07:26:54;;;;;;;;;;;10.10;99.90;;;10.03;100.00;101623.03;4953078;28;19984;-80
2022/01/01 07:29:21;;;;;;;;;;;11.50;99.90;;;9.95;100.00;101626.56;4950759;28;20029;-80
2022/01/01 07:31:48;;;;;;;;;;;10.10;99.90;;;10.01;100.00;101637.94;4951046;28;19930;-80
2022/01/01 07:34:15;;;;;;;;;;;12.90;99.90;;;9.93;100.00;101632.69;4948866;28;20333;-81
2022/01/01 07:36:42;;;;;;;;;;;10.50;99.90;;;9.99;100.00;101644.06;4950650;28;20016;-81
2022/01/01 07:39:10;;;;;;;;;;;12.50;99.90;;;9.96;100.00;101644.94;4934980;28;20294;-80
2022/01/01 07:41:37;;;;;;;;;;;9.90;99.90;;;10.03;100.00;101643.16;4935005;28;19933;-80
2022/01/01 07:44:06;;;;;;;;;;;10.00;99.90;;;10.00;100.00;101643.19;4965121;28;19927;-80
2022/01/01 07:46:33;;;;;;;;;;;9.40;99.90;;;10.00;100.00;101641.44;4950804;28;19937;-80
2022/01/01 07:49:00;;;;;;;;;;;11.50;99.90;;;9.99;100.00;101638.81;4950447;28;19953;-80
2022/01/01 07:51:27;;;;;;;;;;;10.50;99.90;;;9.99;100.00;101644.97;4953859;28;19926;-80
2022/01/01 07:53:54;;;;;;;;;;;11.60;99.90;;;10.05;100.00;101649.31;4953076;28;19930;-80
2022/01/01 07:56:21;;;;;;;;;;;10.10;99.90;;;10.03;100.00;101645.81;4938917;28;20001;-80
2022/01/01 07:58:47;;;;;;;;;;;10.00;99.90;;;9.96;100.00;101636.19;4941919;28;20305;-81
2022/01/01 08:01:14;;;;;;;;;;;11.10;99.90;;;10.06;100.00;101661.56;4963719;28;19937;-81
2022/01/01 08:03:42;;;;;;;;;;;10.10;99.90;;;10.06;100.00;101656.31;4949911;29;20306;-81
2022/01/01 08:06:09;;;;;;;;;;;9.10;99.90;;;10.04;100.00;101658.06;4942859;29;19937;-81
2022/01/01 08:08:36;;;;;;;;;;;10.10;99.90;;;10.12;100.00;101672.09;4936930;29;19931;-81
2022/01/01 08:11:03;;;;;;;;;;;11.10;99.90;;;10.06;100.00;101664.19;4936579;29;20383;-81
2022/01/01 08:13:35;;;;;;;;;;;10.50;99.90;;;10.06;100.00;101672.97;4966844;28;19930;-81
2022/01/01 08:16:02;;;;;;;;;;;10.70;99.90;;;10.04;100.00;101681.75;4967392;28;19976;-81
2022/01/01 08:18:29;;;;;;;;;;;10.20;99.90;;;10.07;100.00;101681.75;4983613;28;19934;-81
2022/01/01 08:20:56;;;;;;;;;;;10.10;99.90;;;10.06;100.00;101687.88;4984603;28;19927;-81
2022/01/01 08:23:23;;;;;;;;;;;10.20;99.90;;;10.10;100.00;101687.00;4965988;28;19930;-81
2022/01/01 08:25:56;;;;;;;;;;;11.80;99.90;;;10.13;100.00;101684.38;4967477;28;19976;-80
2022/01/01 08:28:22;;;;;;;;;;;11.20;99.90;;;10.14;100.00;101682.59;4967294;28;19930;-81
2022/01/01 08:30:49;;;;;;;;;;;10.20;99.90;;;10.18;100.00;101682.59;4951746;28;19937;-81
2022/01/01 08:33:16;;;;;;;;;;;11.30;99.90;;;10.21;100.00;101687.00;4965868;28;20553;-80
2022/01/01 08:35:43;;;;;;;;;;;10.20;99.90;;;10.19;100.00;101686.13;4969193;28;19930;-81
2022/01/01 08:38:11;;;;;;;;;;;11.20;99.90;;;10.21;100.00;101692.25;4937905;28;19930;-80
2022/01/01 08:40:38;;;;;;;;;;;10.20;99.90;;;10.17;100.00;101680.00;4954329;28;19937;-81
2022/01/01 08:43:05;;;;;;;;;;;10.70;99.90;;;10.19;100.00;101683.50;4937231;28;20402;-80
2022/01/01 08:45:34;;;;;;;;;;;10.20;99.90;;;10.25;100.00;101680.84;4937827;28;19973;-81
2022/01/01 08:48:06;;;;;;;;;;;12.20;99.90;;;10.28;100.00;101683.47;4952875;28;20027;-80
2022/01/01 08:50:33;;;;;;;;;;;10.30;99.90;;;10.27;100.00;101691.38;4938398;28;19934;-81
2022/01/01 08:53:00;;;;;;;;;;;10.30;99.90;;;10.28;100.00;101696.63;4953905;28;19936;-80
2022/01/01 08:55:28;;;;;;;;;;;10.40;99.90;;;10.29;100.00;101684.34;4936309;28;19930;-80
2022/01/01 08:57:55;;;;;;;;;;;11.80;99.90;;;10.31;100.00;101691.38;4952841;28;19926;-80
2022/01/01 09:00:48;;;;;;;;;;;10.30;99.90;;;10.33;100.00;101693.97;4942910;28;19941;-81
2022/01/01 09:03:17;;;;;;;;;;;10.30;99.90;;;10.37;100.00;101687.81;4954700;28;19930;-80
2022/01/01 09:05:44;;;;;;;;;;;10.40;99.90;;;10.40;100.00;101681.69;4956284;28;19996;-79
2022/01/01 09:08:32;;;;;;;;;;;12.30;99.90;;;10.38;100.00;101676.44;4957749;28;19930;-80
2022/01/01 09:10:59;;;;;;;;;;;10.50;99.90;;;10.40;100.00;101673.81;4955803;28;19930;-80
2022/01/01 09:13:26;;;;;;;;;;;10.40;99.90;;;10.44;100.00;101678.19;4938049;28;20437;-80
2022/01/01 09:15:53;;;;;;;;;;;10.50;99.90;;;10.44;100.00;101684.34;4969853;28;19930;-79
2022/01/01 09:18:20;;;;;;;;;;;10.50;99.90;;;10.47;100.00;101686.97;4968864;28;19930;-80
2022/01/01 09:20:48;;;;;;;;;;;10.50;99.90;;;10.44;100.00;101679.09;4953908;28;19965;-80
2022/01/01 09:23:16;;;;;;;;;;;10.50;99.90;;;10.55;100.00;101683.47;4952538;28;19941;-80
2022/01/01 09:25:43;;;;;;;;;;;10.50;99.90;;;10.59;100.00;101685.19;4970718;28;19965;-80
2022/01/01 09:28:10;;;;;;;;;;;10.60;99.90;;;10.62;100.00;101677.28;4964204;28;20005;-81
2022/01/01 09:30:37;;;;;;;;;;;10.60;99.90;;;10.59;100.00;101672.91;4963027;28;19926;-81
2022/01/01 09:33:04;;;;;;;;;;;12.60;99.90;;;10.71;100.00;101679.00;4952122;28;20383;-81
2022/01/01 09:35:30;;;;;;;;;;;10.80;99.90;;;10.74;100.00;101676.34;4952895;28;19932;-82
2022/01/01 09:37:57;;;;;;;;;;;10.80;99.90;;;10.70;100.00;101664.09;4953157;28;19933;-81
2022/01/01 09:40:25;;;;;;;;;;;10.80;99.90;;;10.82;100.00;101684.22;4937268;28;19937;-81
2022/01/01 09:42:52;;;;;;;;;;;10.80;99.90;;;10.82;100.00;101668.44;4951808;28;19961;-82
2022/01/01 09:45:20;;;;;;;;;;;10.90;99.90;;;10.81;100.00;101677.22;4952487;28;19977;-81
2022/01/01 09:47:48;;;;;;;;;;;12.40;99.90;;;10.82;100.00;101658.78;4951366;28;19962;-82
2022/01/01 09:50:15;;;;;;;;;;;11.10;99.90;;;10.87;100.00;101672.78;4949660;28;19931;-81
2022/01/01 09:52:42;;;;;;;;;;;10.90;99.90;;;11.01;100.00;101671.88;4964297;28;19930;-81
2022/01/01 09:55:09;;;;;;;;;;;10.90;99.90;;;11.02;100.00;101665.72;4931800;29;19930;-81
2022/01/01 09:57:37;;;;;;;;;;;11.00;99.90;;;11.05;100.00;101665.69;4964295;28;20540;-80
2022/01/01 10:00:05;;;;;;;;;;;12.20;99.90;;;11.06;100.00;101663.06;4964304;28;19926;-81
2022/01/01 10:02:33;;;;;;;;;;;11.10;99.90;;;11.10;100.00;101653.38;4946677;28;20429;-80
2022/01/01 10:05:05;;;;;;;;;;;11.20;99.90;;;11.15;100.00;101653.34;4947036;29;19931;-80
2022/01/01 10:07:32;;;;;;;;;;;11.20;99.90;;;11.21;100.00;101654.19;4947519;28;19945;-80
2022/01/01 10:10:17;;;;;;;;;;;12.80;99.90;;;11.23;100.00;101654.19;4947572;28;20049;-81
2022/01/01 10:12:43;;;;;;;;;;;11.20;99.90;;;11.26;100.00;101653.31;4931842;28;19931;-81
2022/01/01 10:15:11;;;;;;;;;;;11.90;99.90;;;11.38;100.00;101647.06;4928997;29;20008;-80
2022/01/01 10:17:38;;;;;;;;;;;11.30;99.90;;;11.40;100.00;101651.44;4913240;29;20695;-80
2022/01/01 10:20:06;;;;;;;;;;;12.40;99.90;;;11.47;100.00;101642.59;4945001;29;19930;-80
2022/01/01 10:22:35;;;;;;;;;;;11.40;99.90;;;11.49;100.00;101642.59;4928651;29;20454;-80
2022/01/01 10:27:57;;;;;;;;;;;11.50;99.90;;;11.63;100.00;101648.66;4970623;28;19927;-81
2022/01/01 10:30:40;;;;;;;;;;;11.50;99.90;;;11.65;100.00;101643.34;4951670;29;20030;-82
2022/01/01 10:33:13;;;;;;;;;;;11.60;99.90;;;11.76;100.00;101644.13;4935053;29;20717;-81
2022/01/01 10:35:48;;;;;;;;;;;11.70;99.90;;;11.71;100.00;101640.66;4918530;29;19988;-81
2022/01/01 10:38:19;;;;;;;;;;;11.70;99.90;;;11.81;100.00;101638.81;4935250;29;20425;-81
2022/01/01 10:40:47;;;;;;;;;;;11.80;99.90;;;11.76;100.00;101638.88;4948909;28;19930;-80
2022/01/01 10:43:20;;;;;;;;;;;11.80;99.90;;;11.88;100.00;101632.59;4918569;29;19941;-81
2022/01/01 10:45:48;;;;;;;;;;;11.80;99.90;;;11.97;100.00;101630.78;4935214;29;20041;-81
2022/01/01 10:51:07;;;;;;;;;;;11.90;99.90;;;12.11;100.00;101621.00;4930020;29;19931;-81
2022/01/01 10:53:35;;;;;;;;;;;12.00;99.90;;;12.16;100.00;101607.72;4932340;28;20365;-81
2022/01/01 10:56:19;;;;;;;;;;;12.10;99.90;;;12.29;100.00;101616.41;4931918;29;19977;-81
2022/01/01 10:58:57;;;;;;;;;;;12.10;99.90;;;12.34;100.00;101617.22;4932186;29;20280;-81
2022/01/01 11:01:24;;;;;;;;;;;12.20;99.90;;;12.37;100.00;101603.97;4931569;29;19949;-81
2022/01/01 11:03:56;;;;;;;;;;;12.30;99.90;;;12.39;100.00;101606.63;4915820;29;19927;-81
2022/01/01 11:06:23;;;;;;;;;;;12.30;99.90;;;12.34;100.00;101598.75;4947720;29;19969;-80
2022/01/01 11:08:51;;;;;;;;;;;11.80;99.90;;;12.44;100.00;101607.41;4947971;29;19937;-81
2022/01/01 11:11:18;;;;;;;;;;;12.40;99.90;;;12.54;100.00;101611.72;4931521;29;19965;-80
2022/01/01 11:13:45;;;;;;;;;;;12.50;99.90;;;12.57;100.00;101601.09;4947193;28;19974;-81
2022/01/01 11:16:14;;;;;;;;;;;12.50;99.90;;;12.65;100.00;101598.38;4963414;28;19972;-81